createdAt,value
2017-09-22T00:00:10.021Z,99.70
2017-09-22T00:02:39.089Z,99.80
2017-09-22T00:05:07.393Z,99.70
2017-09-22T00:07:35.727Z,99.90
2017-09-22T00:10:04.029Z,99.90
2017-09-22T00:12:32.382Z,99.90
2017-09-22T00:15:00.685Z,99.90
2017-09-22T00:17:29.767Z,99.90
2017-09-22T00:19:58.074Z,99.90
2017-09-22T00:22:26.406Z,99.90
2017-09-22T00:24:55.466Z,99.90
2017-09-22T00:27:23.777Z,99.90
2017-09-22T00:29:52.085Z,99.90
2017-09-22T00:32:20.386Z,99.90
2017-09-22T00:34:48.701Z,99.90
2017-09-22T00:37:17.035Z,99.90
2017-09-22T00:39:46.100Z,99.90
2017-09-22T00:42:14.417Z,99.90
2017-09-22T00:44:42.741Z,99.90
2017-09-22T00:47:11.045Z,99.90
2017-09-22T00:49:39.358Z,99.90
2017-09-22T00:52:08.413Z,99.90
2017-09-22T00:54:36.769Z,99.90
2017-09-22T00:57:05.085Z,99.90
2017-09-22T00:59:33.379Z,99.90
2017-09-22T01:02:01.688Z,99.90
2017-09-22T01:04:29.982Z,99.90
2017-09-22T01:07:04.688Z,99.90
2017-09-22T01:09:33.011Z,99.90
2017-09-22T01:12:01.321Z,99.90
2017-09-22T01:14:29.617Z,99.90
2017-09-22T01:16:57.929Z,99.90
2017-09-22T01:19:26.218Z,99.90
2017-09-22T01:21:54.557Z,99.90
2017-09-22T01:24:23.608Z,99.90
2017-09-22T01:26:51.932Z,99.90
2017-09-22T01:29:20.225Z,99.90
2017-09-22T01:31:48.537Z,99.90
2017-09-22T01:34:16.840Z,99.90
2017-09-22T01:36:45.122Z,99.90
2017-09-22T01:39:13.570Z,99.90
2017-09-22T01:41:41.867Z,99.90
2017-09-22T01:44:10.168Z,99.90
2017-09-22T01:46:38.478Z,99.90
2017-09-22T01:49:06.784Z,99.90
2017-09-22T01:51:35.066Z,99.90
2017-09-22T01:54:03.378Z,99.90
2017-09-22T01:56:31.702Z,99.90
2017-09-22T01:59:00.780Z,99.90
2017-09-22T02:01:29.097Z,99.90
2017-09-22T02:03:57.398Z,99.90
2017-09-22T02:06:25.724Z,99.90
2017-09-22T02:08:55.020Z,99.90
2017-09-22T02:11:23.311Z,99.90
2017-09-22T02:13:51.608Z,99.90
2017-09-22T02:16:19.922Z,99.90
2017-09-22T02:18:48.210Z,99.90
2017-09-22T02:21:16.518Z,99.90
2017-09-22T02:23:44.845Z,99.90
2017-09-22T02:26:13.157Z,99.90
2017-09-22T02:28:41.488Z,99.90
2017-09-22T02:31:09.779Z,99.90
2017-09-22T02:33:38.830Z,99.90
2017-09-22T02:36:07.147Z,99.90
2017-09-22T02:38:35.450Z,99.90
2017-09-22T02:41:03.737Z,99.90
2017-09-22T02:43:32.047Z,99.90
2017-09-22T02:46:00.334Z,99.90
2017-09-22T02:48:28.694Z,99.90
2017-09-22T02:50:57.751Z,99.90
2017-09-22T02:53:26.042Z,99.90
2017-09-22T02:55:54.437Z,99.90
2017-09-22T02:58:23.515Z,99.90
2017-09-22T03:00:51.855Z,99.90
2017-09-22T03:03:20.942Z,99.90
2017-09-22T03:05:49.231Z,99.90
2017-09-22T03:10:56.784Z,99.90
2017-09-22T03:13:25.072Z,99.90
2017-09-22T03:15:53.402Z,99.90
2017-09-22T03:18:21.708Z,99.90
2017-09-22T03:20:50.026Z,99.90
2017-09-22T03:23:18.318Z,99.90
2017-09-22T03:25:46.639Z,99.90
2017-09-22T03:28:14.925Z,99.90
2017-09-22T03:30:43.255Z,99.90
2017-09-22T03:33:11.544Z,99.90
2017-09-22T03:35:39.850Z,99.90
2017-09-22T03:38:08.176Z,99.90
2017-09-22T03:40:36.466Z,99.90
2017-09-22T03:43:04.823Z,99.90
2017-09-22T03:45:33.111Z,99.90
2017-09-22T03:48:01.409Z,99.90
2017-09-22T03:50:29.724Z,99.90
2017-09-22T03:52:58.777Z,99.90
2017-09-22T03:55:27.060Z,99.90
2017-09-22T03:57:55.382Z,99.90
2017-09-22T04:00:23.666Z,99.90
2017-09-22T04:02:52.740Z,99.90
2017-09-22T04:05:21.049Z,99.90
2017-09-22T04:07:49.428Z,99.90
2017-09-22T04:10:17.746Z,99.90
2017-09-22T04:12:46.069Z,99.90
2017-09-22T04:15:14.362Z,99.90
2017-09-22T04:17:42.697Z,99.90
2017-09-22T04:20:11.800Z,99.90
2017-09-22T04:22:40.089Z,99.90
2017-09-22T04:25:08.401Z,99.90
2017-09-22T04:27:36.717Z,99.90
2017-09-22T04:30:05.782Z,99.90
2017-09-22T04:32:34.102Z,99.90
2017-09-22T04:35:02.386Z,99.90
2017-09-22T04:37:30.668Z,99.90
2017-09-22T04:39:58.980Z,99.90
2017-09-22T04:42:27.262Z,99.90
2017-09-22T04:44:55.589Z,99.90
2017-09-22T04:47:23.868Z,99.90
2017-09-22T04:49:52.159Z,99.90
2017-09-22T04:52:20.473Z,99.90
2017-09-22T04:54:49.101Z,99.90
2017-09-22T04:57:17.417Z,99.90
2017-09-22T04:59:45.715Z,99.90
2017-09-22T05:02:14.038Z,99.90
2017-09-22T05:04:42.326Z,99.90
2017-09-22T05:07:10.658Z,99.90
2017-09-22T05:09:38.953Z,99.90
2017-09-22T05:12:07.240Z,99.90
2017-09-22T05:14:35.549Z,99.90
2017-09-22T05:17:03.835Z,99.90
2017-09-22T05:19:32.153Z,99.90
2017-09-22T05:22:00.461Z,99.90
2017-09-22T05:24:28.786Z,99.90
2017-09-22T05:26:57.840Z,99.90
2017-09-22T05:29:26.145Z,99.90
2017-09-22T05:31:54.489Z,99.90
2017-09-22T05:34:23.577Z,99.90
2017-09-22T05:36:51.867Z,99.90
2017-09-22T05:39:20.180Z,99.90
2017-09-22T05:41:48.509Z,99.90
2017-09-22T05:44:17.565Z,99.90
2017-09-22T05:46:45.849Z,99.90
2017-09-22T05:49:14.157Z,99.90
2017-09-22T05:51:42.444Z,99.90
2017-09-22T05:54:10.762Z,99.90
2017-09-22T05:56:39.062Z,99.90
2017-09-22T05:59:07.387Z,99.90
2017-09-22T06:01:35.774Z,99.90
2017-09-22T06:04:04.085Z,99.90
2017-09-22T06:06:32.396Z,99.90
2017-09-22T06:09:00.681Z,99.90
2017-09-22T06:11:29.006Z,99.90
2017-09-22T06:13:57.291Z,99.90
2017-09-22T06:16:25.583Z,99.90
2017-09-22T06:18:53.913Z,99.90
2017-09-22T06:21:22.210Z,99.90
2017-09-22T06:23:50.538Z,99.90
2017-09-22T06:26:18.829Z,99.90
2017-09-22T06:28:47.117Z,99.90
2017-09-22T06:31:15.416Z,99.90
2017-09-22T06:33:43.733Z,99.90
2017-09-22T06:36:12.034Z,99.90
2017-09-22T06:38:40.328Z,99.90
2017-09-22T06:41:08.661Z,99.90
2017-09-22T06:43:37.733Z,99.90
2017-09-22T06:46:06.024Z,99.90
2017-09-22T06:48:34.600Z,99.90
2017-09-22T06:51:03.016Z,99.90
2017-09-22T06:53:31.345Z,98.90
2017-09-22T06:55:59.645Z,94.40
2017-09-22T06:58:27.977Z,91.00
2017-09-22T07:00:56.302Z,84.80
2017-09-22T07:03:25.395Z,78.90
2017-09-22T07:05:53.717Z,78.70
2017-09-22T07:08:22.827Z,75.70
2017-09-22T07:10:51.118Z,75.60
2017-09-22T07:13:19.436Z,72.90
2017-09-22T07:15:48.605Z,69.50
2017-09-22T07:18:16.985Z,70.00
2017-09-22T07:20:45.292Z,67.20
2017-09-22T07:23:13.729Z,65.30
2017-09-22T07:25:42.036Z,65.30
2017-09-22T07:28:10.331Z,66.10
2017-09-22T07:30:38.838Z,66.90
2017-09-22T07:33:07.136Z,67.70
2017-09-22T07:35:35.451Z,67.70
2017-09-22T07:38:03.748Z,66.70
2017-09-22T07:40:32.302Z,64.00
2017-09-22T07:43:01.397Z,61.00
2017-09-22T07:45:30.496Z,59.10
2017-09-22T07:47:58.819Z,59.60
2017-09-22T07:50:27.560Z,58.10
2017-09-22T07:52:55.957Z,59.20
2017-09-22T07:55:25.046Z,59.80
2017-09-22T07:57:53.350Z,59.70
2017-09-22T08:00:21.649Z,59.40
2017-09-22T08:02:49.985Z,59.00
2017-09-22T08:05:18.274Z,58.50
2017-09-22T08:07:46.733Z,58.00
2017-09-22T08:10:15.067Z,57.40
2017-09-22T08:12:43.377Z,56.20
2017-09-22T08:15:12.701Z,55.20
2017-09-22T08:17:41.024Z,55.20
2017-09-22T08:20:09.322Z,55.50
2017-09-22T08:22:37.671Z,54.40
2017-09-22T08:25:06.000Z,55.60
2017-09-22T08:27:34.305Z,55.70
2017-09-22T08:30:02.631Z,54.90
2017-09-22T08:32:31.029Z,54.90
2017-09-22T08:35:00.109Z,58.50
2017-09-22T08:37:28.425Z,58.50
2017-09-22T08:39:56.745Z,59.40
2017-09-22T08:44:55.486Z,59.30
2017-09-22T08:47:23.780Z,59.20
2017-09-22T08:49:52.070Z,59.00
2017-09-22T08:52:20.441Z,58.60
2017-09-22T08:54:48.736Z,58.50
2017-09-22T08:57:17.112Z,58.90
2017-09-22T08:59:45.503Z,58.50
2017-09-22T09:02:13.807Z,55.80
2017-09-22T09:04:42.112Z,52.90
2017-09-22T09:07:11.219Z,52.20
2017-09-22T09:09:39.640Z,52.00
2017-09-22T09:12:08.713Z,54.80
2017-09-22T09:14:37.035Z,54.70
2017-09-22T09:17:06.158Z,53.10
2017-09-22T09:19:34.458Z,53.10
2017-09-22T09:22:02.762Z,52.10
2017-09-22T09:24:31.093Z,53.40
2017-09-22T09:27:00.153Z,51.40
2017-09-22T09:29:28.452Z,51.40
2017-09-22T09:31:56.826Z,50.50
2017-09-22T09:34:25.886Z,50.20
2017-09-22T09:36:54.184Z,50.20
2017-09-22T09:39:22.510Z,50.40
2017-09-22T09:41:50.805Z,49.10
2017-09-22T09:44:19.112Z,50.60
2017-09-22T09:46:48.217Z,49.40
2017-09-22T09:49:16.513Z,49.90
2017-09-22T09:51:44.824Z,48.60
2017-09-22T09:54:13.145Z,49.50
2017-09-22T09:56:41.490Z,49.70
2017-09-22T09:59:09.781Z,48.20
2017-09-22T10:01:38.845Z,47.40
2017-09-22T10:04:07.209Z,47.40
2017-09-22T10:06:35.508Z,46.00
2017-09-22T10:09:04.627Z,47.80
2017-09-22T10:11:32.953Z,47.80
2017-09-22T10:14:01.273Z,49.20
2017-09-22T10:16:29.596Z,48.10
2017-09-22T10:18:57.889Z,46.80
2017-09-22T10:21:26.234Z,44.90
2017-09-22T10:23:55.302Z,44.70
2017-09-22T10:26:23.592Z,44.70
2017-09-22T10:28:51.938Z,40.90
2017-09-22T10:31:21.148Z,44.10
2017-09-22T10:33:49.452Z,44.00
2017-09-22T10:36:17.781Z,42.10
2017-09-22T10:38:46.105Z,42.00
2017-09-22T10:41:14.444Z,42.20
2017-09-22T10:43:42.772Z,40.80
2017-09-22T10:46:11.835Z,41.00
2017-09-22T10:48:40.155Z,40.90
2017-09-22T10:51:08.472Z,38.70
2017-09-22T10:53:36.777Z,39.30
2017-09-22T10:56:05.110Z,41.10
2017-09-22T10:58:34.205Z,41.50
2017-09-22T11:01:02.544Z,41.50
2017-09-22T11:03:30.861Z,38.90
2017-09-22T11:05:59.182Z,38.50
2017-09-22T11:08:27.502Z,39.90
2017-09-22T11:10:55.853Z,40.60
2017-09-22T11:13:24.159Z,40.90
2017-09-22T11:15:52.460Z,41.90
2017-09-22T11:18:20.776Z,42.10
2017-09-22T11:20:49.098Z,43.30
2017-09-22T11:23:17.425Z,41.90
2017-09-22T11:25:46.491Z,44.10
2017-09-22T11:28:14.814Z,44.00
2017-09-22T11:30:43.109Z,42.40
2017-09-22T11:33:11.422Z,40.80
2017-09-22T11:35:39.763Z,40.80
2017-09-22T11:38:08.864Z,38.30
2017-09-22T11:40:37.192Z,38.30
2017-09-22T11:43:06.279Z,39.60
2017-09-22T11:45:34.564Z,39.60
2017-09-22T11:48:02.897Z,39.90
2017-09-22T11:50:31.253Z,39.30
2017-09-22T11:52:59.549Z,38.70
2017-09-22T11:55:27.876Z,39.70
2017-09-22T11:57:56.172Z,39.20
2017-09-22T12:00:24.505Z,39.60
2017-09-22T12:02:52.806Z,37.70
2017-09-22T12:05:21.125Z,37.60
2017-09-22T12:07:50.207Z,38.60
2017-09-22T12:10:18.504Z,38.60
2017-09-22T12:12:46.833Z,42.90
2017-09-22T12:15:15.154Z,41.00
2017-09-22T12:17:44.218Z,41.60
2017-09-22T12:20:13.314Z,41.20
2017-09-22T12:22:41.639Z,41.80
2017-09-22T12:25:09.932Z,40.50
2017-09-22T12:27:38.282Z,38.90
2017-09-22T12:30:06.578Z,40.50
2017-09-22T12:32:34.873Z,39.40
2017-09-22T12:35:03.207Z,41.60
2017-09-22T12:37:32.271Z,43.00
2017-09-22T12:40:00.590Z,42.90
2017-09-22T12:42:28.921Z,39.90
2017-09-22T12:44:57.245Z,40.30
2017-09-22T12:47:25.541Z,39.60
2017-09-22T12:49:54.657Z,42.50
2017-09-22T12:52:23.720Z,43.70
2017-09-22T12:54:52.024Z,43.70
2017-09-22T12:57:20.381Z,41.30
2017-09-22T12:59:48.684Z,42.60
2017-09-22T13:02:16.974Z,44.10
2017-09-22T13:04:45.294Z,44.70
2017-09-22T13:07:13.589Z,46.30
2017-09-22T13:09:41.930Z,45.80
2017-09-22T13:12:10.238Z,47.30
2017-09-22T13:14:38.575Z,46.00
2017-09-22T13:17:06.915Z,48.00
2017-09-22T13:19:35.982Z,48.80
2017-09-22T13:22:04.274Z,48.80
2017-09-22T13:24:32.607Z,48.00
2017-09-22T13:27:00.909Z,47.30
2017-09-22T13:29:29.255Z,48.60
2017-09-22T13:31:58.318Z,48.60
2017-09-22T13:34:26.628Z,48.60
2017-09-22T13:36:54.973Z,48.00
2017-09-22T13:39:24.042Z,46.90
2017-09-22T13:41:52.338Z,46.90
2017-09-22T13:44:20.682Z,47.50
2017-09-22T13:46:48.963Z,49.00
2017-09-22T13:49:17.269Z,50.60
2017-09-22T13:51:45.598Z,50.50
2017-09-22T13:54:13.935Z,50.10
2017-09-22T13:56:43.034Z,49.50
2017-09-22T13:59:11.333Z,49.40
2017-09-22T14:01:39.629Z,49.00
2017-09-22T14:04:07.993Z,50.10
2017-09-22T14:06:36.281Z,48.50
2017-09-22T14:09:04.618Z,48.90
2017-09-22T14:11:32.957Z,48.60
2017-09-22T14:14:02.023Z,49.80
2017-09-22T14:16:30.320Z,49.00
2017-09-22T14:18:58.649Z,48.80
2017-09-22T14:21:26.948Z,50.20
2017-09-22T14:23:55.327Z,50.50
2017-09-22T14:26:23.641Z,50.90
2017-09-22T14:28:51.956Z,49.90
2017-09-22T14:31:20.285Z,51.30
2017-09-22T14:33:48.577Z,50.10
2017-09-22T14:36:16.908Z,51.00
2017-09-22T14:38:45.973Z,52.20
2017-09-22T14:41:14.257Z,52.20
2017-09-22T14:43:42.582Z,51.90
2017-09-22T14:46:10.878Z,52.40
2017-09-22T14:48:39.213Z,52.50
2017-09-22T14:51:07.505Z,53.10
2017-09-22T14:53:35.807Z,53.30
2017-09-22T14:56:04.126Z,53.90
2017-09-22T14:58:33.225Z,53.80
2017-09-22T15:01:01.522Z,53.80
2017-09-22T15:03:29.862Z,54.80
2017-09-22T15:05:58.187Z,53.80
2017-09-22T15:08:27.281Z,54.80
2017-09-22T15:10:55.582Z,54.80
2017-09-22T15:13:23.876Z,55.90
2017-09-22T15:15:52.309Z,55.80
2017-09-22T15:18:21.369Z,55.60
2017-09-22T15:20:49.683Z,55.50
2017-09-22T15:23:17.984Z,54.70
2017-09-22T15:25:46.325Z,54.80
2017-09-22T15:28:15.381Z,54.50
2017-09-22T15:30:43.682Z,54.40
2017-09-22T15:33:12.003Z,54.10
2017-09-22T15:35:40.298Z,54.20
2017-09-22T15:38:08.642Z,53.10
2017-09-22T15:40:37.707Z,54.80
2017-09-22T15:43:06.004Z,54.80
2017-09-22T15:45:34.351Z,54.40
2017-09-22T15:48:02.647Z,55.70
2017-09-22T15:50:30.939Z,55.70
2017-09-22T15:52:59.276Z,56.00
2017-09-22T15:55:27.575Z,55.80
2017-09-22T15:57:55.901Z,55.80
2017-09-22T16:00:24.984Z,57.10
2017-09-22T16:02:53.320Z,57.10
2017-09-22T16:05:22.406Z,57.80
2017-09-22T16:07:50.702Z,57.80
2017-09-22T16:10:19.028Z,57.40
2017-09-22T16:12:47.349Z,57.60
2017-09-22T16:15:16.406Z,59.90
2017-09-22T16:17:44.753Z,59.70
2017-09-22T16:20:13.057Z,60.20
2017-09-22T16:22:42.171Z,62.50
2017-09-22T16:25:10.462Z,61.60
2017-09-22T16:27:38.766Z,61.40
2017-09-22T16:30:07.094Z,62.20
2017-09-22T16:32:36.189Z,59.60
2017-09-22T16:35:04.526Z,59.50
2017-09-22T16:37:33.582Z,59.00
2017-09-22T16:40:01.885Z,59.00
2017-09-22T16:42:30.237Z,63.30
2017-09-22T16:44:59.329Z,61.20
2017-09-22T16:47:27.636Z,61.20
2017-09-22T16:49:55.970Z,63.90
2017-09-22T16:52:25.033Z,61.50
2017-09-22T16:54:53.362Z,61.30
2017-09-22T16:57:21.711Z,66.20
2017-09-22T16:59:50.009Z,67.90
2017-09-22T17:02:18.332Z,70.30
2017-09-22T17:04:46.631Z,73.20
2017-09-22T17:07:14.963Z,72.40
2017-09-22T17:09:43.266Z,72.80
2017-09-22T17:12:11.564Z,75.70
2017-09-22T17:14:40.729Z,75.90
2017-09-22T17:17:09.786Z,75.30
2017-09-22T17:19:38.147Z,75.30
2017-09-22T17:22:07.212Z,73.40
2017-09-22T17:24:35.549Z,73.40
2017-09-22T17:27:03.889Z,73.70
2017-09-22T17:29:32.193Z,73.30
2017-09-22T17:32:01.358Z,75.10
2017-09-22T17:34:29.692Z,75.10
2017-09-22T17:36:58.027Z,74.70
2017-09-22T17:39:26.399Z,77.80
2017-09-22T17:41:54.693Z,77.90
2017-09-22T17:44:23.026Z,77.40
2017-09-22T17:46:52.097Z,77.20
2017-09-22T17:49:20.487Z,77.10
2017-09-22T17:51:48.798Z,77.80
2017-09-22T17:54:17.102Z,78.80
2017-09-22T17:56:45.437Z,77.50
2017-09-22T17:59:13.761Z,77.70
2017-09-22T18:01:42.853Z,77.70
2017-09-22T18:04:11.176Z,77.70
2017-09-22T18:06:40.239Z,78.60
2017-09-22T18:09:08.582Z,78.60
2017-09-22T18:11:36.885Z,79.20
2017-09-22T18:14:05.180Z,78.50
2017-09-22T18:16:33.507Z,79.80
2017-09-22T18:19:01.809Z,80.40
2017-09-22T18:21:30.925Z,82.30
2017-09-22T18:23:59.309Z,81.40
2017-09-22T18:26:27.608Z,81.40
2017-09-22T18:28:56.108Z,81.80
2017-09-22T18:31:24.437Z,82.00
2017-09-22T18:33:52.773Z,81.20
2017-09-22T18:36:21.073Z,83.60
2017-09-22T18:38:50.135Z,82.70
2017-09-22T18:41:18.453Z,82.70
2017-09-22T18:43:46.748Z,83.80
2017-09-22T18:46:15.066Z,84.40
2017-09-22T18:48:43.360Z,85.70
2017-09-22T18:51:11.694Z,87.10
2017-09-22T18:53:40.767Z,87.50
2017-09-22T18:56:09.109Z,87.50
2017-09-22T18:58:38.211Z,87.70
2017-09-22T19:01:06.892Z,87.60
2017-09-22T19:03:35.338Z,88.60
2017-09-22T19:06:03.646Z,89.10
2017-09-22T19:08:32.748Z,91.20
2017-09-22T19:11:01.083Z,90.70
2017-09-22T19:13:30.148Z,92.20
2017-09-22T19:15:58.495Z,92.20
2017-09-22T19:18:27.578Z,91.90
2017-09-22T19:20:56.103Z,91.70
2017-09-22T19:23:24.477Z,91.80
2017-09-22T19:25:52.776Z,92.30
2017-09-22T19:28:21.123Z,94.20
2017-09-22T19:30:49.433Z,94.70
2017-09-22T19:33:18.529Z,95.60
2017-09-22T19:35:46.878Z,95.60
2017-09-22T19:38:15.205Z,96.10
2017-09-22T19:40:43.548Z,94.80
2017-09-22T19:43:11.871Z,95.00
2017-09-22T19:45:41.037Z,95.60
2017-09-22T19:48:09.369Z,95.60
2017-09-22T19:50:37.697Z,94.70
2017-09-22T19:53:06.770Z,95.80
2017-09-22T19:55:35.104Z,95.70
2017-09-22T19:58:03.402Z,96.40
2017-09-22T20:00:31.715Z,96.20
2017-09-22T20:03:00.048Z,96.30
2017-09-22T20:05:29.140Z,96.80
2017-09-22T20:07:57.444Z,96.80
2017-09-22T20:10:25.784Z,95.80
2017-09-22T20:12:54.081Z,94.80
2017-09-22T20:15:23.168Z,96.50
2017-09-22T20:17:51.513Z,96.50
2017-09-22T20:20:19.817Z,97.00
2017-09-22T20:22:48.118Z,95.90
2017-09-22T20:25:16.506Z,96.50
2017-09-22T20:27:45.659Z,96.40
2017-09-22T20:30:14.765Z,96.40
2017-09-22T20:32:43.110Z,96.90
2017-09-22T20:35:11.405Z,96.60
2017-09-22T20:37:39.734Z,97.40
2017-09-22T20:40:08.057Z,98.40
2017-09-22T20:42:37.159Z,98.80
2017-09-22T20:45:05.467Z,98.80
2017-09-22T20:47:34.541Z,99.90
2017-09-22T20:50:02.953Z,99.90
2017-09-22T20:52:31.273Z,99.90
2017-09-22T20:54:59.577Z,99.90
2017-09-22T20:57:27.914Z,99.70
2017-09-22T20:59:56.976Z,99.90
2017-09-22T21:02:25.274Z,99.90
2017-09-22T21:04:53.637Z,99.60
2017-09-22T21:07:22.805Z,98.90
2017-09-22T21:09:51.156Z,99.00
2017-09-22T21:12:20.260Z,99.90
2017-09-22T21:14:48.561Z,99.90
2017-09-22T21:17:16.887Z,99.90
2017-09-22T21:19:45.196Z,99.90
2017-09-22T21:22:13.526Z,99.90
2017-09-22T21:24:41.873Z,99.90
2017-09-22T21:27:10.191Z,99.90
2017-09-22T21:29:39.273Z,99.70
2017-09-22T21:32:07.599Z,99.70
2017-09-22T21:34:35.900Z,99.90
2017-09-22T21:37:04.258Z,99.70
2017-09-22T21:39:32.562Z,99.50
2017-09-22T21:42:00.899Z,98.80
2017-09-22T21:44:29.197Z,99.00
2017-09-22T21:46:57.524Z,99.90
2017-09-22T21:49:25.953Z,99.90
2017-09-22T21:51:55.025Z,99.90
2017-09-22T21:54:23.406Z,99.90
2017-09-22T21:56:51.732Z,99.90
2017-09-22T21:59:20.058Z,99.90
2017-09-22T22:01:49.160Z,99.90
2017-09-22T22:04:22.997Z,99.90
2017-09-22T22:06:56.822Z,99.90
2017-09-22T22:09:26.171Z,99.90
2017-09-22T22:11:55.265Z,99.90
2017-09-22T22:14:23.617Z,99.90
2017-09-22T22:16:51.944Z,99.40
2017-09-22T22:19:20.275Z,99.50
2017-09-22T22:21:48.577Z,98.70
2017-09-22T22:24:16.926Z,98.50
2017-09-22T22:26:45.232Z,98.70
2017-09-22T22:29:13.587Z,98.30
2017-09-22T22:31:41.894Z,99.10
2017-09-22T22:34:10.200Z,99.30
2017-09-22T22:36:38.520Z,99.90
2017-09-22T22:39:07.589Z,99.90
2017-09-22T22:41:35.918Z,99.80
2017-09-22T22:44:04.232Z,99.90
2017-09-22T22:46:32.571Z,99.50
2017-09-22T22:49:00.916Z,99.90
2017-09-22T22:51:29.244Z,99.90
2017-09-22T22:53:57.548Z,99.30
2017-09-22T22:56:26.646Z,98.90
2017-09-22T22:58:54.946Z,98.90
2017-09-22T23:01:23.284Z,99.30
2017-09-22T23:03:52.351Z,99.90
2017-09-22T23:06:20.671Z,99.90
2017-09-22T23:08:49.000Z,99.90
2017-09-22T23:11:17.308Z,99.90
2017-09-22T23:13:46.401Z,99.60
2017-09-22T23:16:14.701Z,99.60
2017-09-22T23:18:43.107Z,99.90
2017-09-22T23:21:11.406Z,99.90
2017-09-22T23:23:39.773Z,99.90
2017-09-22T23:26:08.121Z,99.90
2017-09-22T23:28:36.414Z,99.90
2017-09-22T23:31:04.745Z,99.90
2017-09-22T23:33:33.836Z,99.60
2017-09-22T23:36:02.160Z,99.60
2017-09-22T23:38:30.493Z,99.00
2017-09-22T23:40:58.795Z,99.40
2017-09-22T23:43:27.166Z,99.90
2017-09-22T23:45:55.515Z,99.90
2017-09-22T23:48:23.820Z,99.90
2017-09-22T23:50:52.113Z,99.90
2017-09-22T23:53:20.439Z,99.90
2017-09-22T23:55:48.778Z,99.90
2017-09-22T23:58:17.079Z,99.90
